sensor_id;sensor_type;location;lat;lon;timestamp;temperature;humidity
37310;DHT22;23195;47.744;7.358;2022-12-05T00:01:34;3.40;99.90
37310;DHT22;23195;47.744;7.358;2022-12-05T00:04:05;3.40;99.90
37310;DHT22;23195;47.744;7.358;2022-12-05T00:06:32;3.40;99.90
37310;DHT22;23195;47.744;7.358;2022-12-05T00:08:59;3.40;99.90
37310;DHT22;23195;47.744;7.358;2022-12-05T00:11:30;3.40;99.90
37310;DHT22;23195;47.744;7.358;2022-12-05T00:13:58;3.40;99.90
37310;DHT22;23195;47.744;7.358;2022-12-05T00:16:26;3.40;99.90
37310;DHT22;23195;47.744;7.358;2022-12-05T00:18:52;3.40;99.90
37310;DHT22;23195;47.744;7.358;2022-12-05T00:21:30;3.50;99.90
37310;DHT22;23195;47.744;7.358;2022-12-05T00:23:57;3.40;99.90
37310;DHT22;23195;47.744;7.358;2022-12-05T00:26:23;3.40;99.90
37310;DHT22;23195;47.744;7.358;2022-12-05T00:28:49;3.50;99.90
37310;DHT22;23195;47.744;7.358;2022-12-05T00:31:23;3.40;99.90
37310;DHT22;23195;47.744;7.358;2022-12-05T00:33:51;3.40;99.90
37310;DHT22;23195;47.744;7.358;2022-12-05T00:36:23;3.30;99.90
37310;DHT22;23195;47.744;7.358;2022-12-05T00:38:49;3.40;99.90
37310;DHT22;23195;47.744;7.358;2022-12-05T00:41:20;3.40;99.90
37310;DHT22;23195;47.744;7.358;2022-12-05T00:43:47;3.50;99.90
37310;DHT22;23195;47.744;7.358;2022-12-05T00:46:15;3.40;99.90
37310;DHT22;23195;47.744;7.358;2022-12-05T00:48:41;3.40;99.90
37310;DHT22;23195;47.744;7.358;2022-12-05T00:51:10;3.50;99.90
37310;DHT22;23195;47.744;7.358;2022-12-05T00:53:37;3.60;99.90
37310;DHT22;23195;47.744;7.358;2022-12-05T00:56:14;3.60;99.90
37310;DHT22;23195;47.744;7.358;2022-12-05T00:58:40;3.60;99.90
37310;DHT22;23195;47.744;7.358;2022-12-05T01:01:14;3.60;99.90
37310;DHT22;23195;47.744;7.358;2022-12-05T01:03:41;3.60;99.90
37310;DHT22;23195;47.744;7.358;2022-12-05T01:06:07;3.60;99.90
37310;DHT22;23195;47.744;7.358;2022-12-05T01:08:34;3.60;99.90
37310;DHT22;23195;47.744;7.358;2022-12-05T01:11:01;3.60;99.90
37310;DHT22;23195;47.744;7.358;2022-12-05T01:13:29;3.70;99.90
37310;DHT22;23195;47.744;7.358;2022-12-05T01:15:56;3.60;99.90
37310;DHT22;23195;47.744;7.358;2022-12-05T01:18:22;3.60;99.90
37310;DHT22;23195;47.744;7.358;2022-12-05T01:20:49;3.60;99.90
37310;DHT22;23195;47.744;7.358;2022-12-05T01:23:15;3.60;99.90
37310;DHT22;23195;47.744;7.358;2022-12-05T01:25:47;3.60;99.90
37310;DHT22;23195;47.744;7.358;2022-12-05T01:28:14;3.60;99.90
37310;DHT22;23195;47.744;7.358;2022-12-05T01:30:48;3.60;99.90
37310;DHT22;23195;47.744;7.358;2022-12-05T01:33:15;3.60;99.90
37310;DHT22;23195;47.744;7.358;2022-12-05T01:35:41;3.70;99.90
37310;DHT22;23195;47.744;7.358;2022-12-05T01:38:09;3.60;99.90
37310;DHT22;23195;47.744;7.358;2022-12-05T01:40:35;3.70;99.90
37310;DHT22;23195;47.744;7.358;2022-12-05T01:43:02;3.60;99.90
37310;DHT22;23195;47.744;7.358;2022-12-05T01:45:38;3.60;99.90
37310;DHT22;23195;47.744;7.358;2022-12-05T01:48:10;3.50;99.90
37310;DHT22;23195;47.744;7.358;2022-12-05T01:50:37;3.60;99.90
37310;DHT22;23195;47.744;7.358;2022-12-05T01:53:03;3.60;99.90
37310;DHT22;23195;47.744;7.358;2022-12-05T01:55:29;3.60;99.90
37310;DHT22;23195;47.744;7.358;2022-12-05T01:57:56;3.60;99.90
37310;DHT22;23195;47.744;7.358;2022-12-05T02:00:22;3.70;99.90
37310;DHT22;23195;47.744;7.358;2022-12-05T02:02:53;3.70;99.90
37310;DHT22;23195;47.744;7.358;2022-12-05T02:05:24;3.60;99.90
37310;DHT22;23195;47.744;7.358;2022-12-05T02:07:51;3.70;99.90
37310;DHT22;23195;47.744;7.358;2022-12-05T02:10:17;3.80;99.90
37310;DHT22;23195;47.744;7.358;2022-12-05T02:12:44;3.80;99.90
37310;DHT22;23195;47.744;7.358;2022-12-05T02:18:09;3.70;99.90
37310;DHT22;23195;47.744;7.358;2022-12-05T02:23:18;3.80;99.90
37310;DHT22;23195;47.744;7.358;2022-12-05T02:44:19;4.00;99.90
37310;DHT22;23195;47.744;7.358;2022-12-05T02:46:47;3.90;99.90
37310;DHT22;23195;47.744;7.358;2022-12-05T02:49:21;4.00;99.90
37310;DHT22;23195;47.744;7.358;2022-12-05T02:51:52;4.00;99.90
37310;DHT22;23195;47.744;7.358;2022-12-05T02:54:23;3.10;99.90
37310;DHT22;23195;47.744;7.358;2022-12-05T02:56:51;4.00;99.90
37310;DHT22;23195;47.744;7.358;2022-12-05T02:59:18;4.00;99.90
37310;DHT22;23195;47.744;7.358;2022-12-05T03:01:45;4.10;99.90
37310;DHT22;23195;47.744;7.358;2022-12-05T03:04:13;4.10;99.90
37310;DHT22;23195;47.744;7.358;2022-12-05T03:07:07;4.10;99.90
37310;DHT22;23195;47.744;7.358;2022-12-05T03:10:03;4.10;99.90
37310;DHT22;23195;47.744;7.358;2022-12-05T03:12:36;4.10;99.90
37310;DHT22;23195;47.744;7.358;2022-12-05T03:15:05;4.20;99.90
37310;DHT22;23195;47.744;7.358;2022-12-05T03:17:40;4.30;99.90
37310;DHT22;23195;47.744;7.358;2022-12-05T03:20:14;4.30;99.90
37310;DHT22;23195;47.744;7.358;2022-12-05T03:23:08;4.40;99.90
37310;DHT22;23195;47.744;7.358;2022-12-05T03:25:59;4.30;99.90
37310;DHT22;23195;47.744;7.358;2022-12-05T03:28:43;4.30;99.90
37310;DHT22;23195;47.744;7.358;2022-12-05T03:31:13;4.30;99.90
37310;DHT22;23195;47.744;7.358;2022-12-05T03:33:44;4.30;99.90
37310;DHT22;23195;47.744;7.358;2022-12-05T03:36:25;4.30;99.90
37310;DHT22;23195;47.744;7.358;2022-12-05T03:38:55;4.30;99.90
37310;DHT22;23195;47.744;7.358;2022-12-05T03:41:39;4.30;99.90
37310;DHT22;23195;47.744;7.358;2022-12-05T03:44:19;4.20;99.90
37310;DHT22;23195;47.744;7.358;2022-12-05T03:49:38;4.30;99.90
37310;DHT22;23195;47.744;7.358;2022-12-05T03:52:19;4.20;99.90
37310;DHT22;23195;47.744;7.358;2022-12-05T03:55:00;4.20;99.90
37310;DHT22;23195;47.744;7.358;2022-12-05T03:57:44;4.10;99.90
37310;DHT22;23195;47.744;7.358;2022-12-05T04:00:17;4.20;99.90
37310;DHT22;23195;47.744;7.358;2022-12-05T04:07:53;4.20;99.90
37310;DHT22;23195;47.744;7.358;2022-12-05T04:10:24;4.20;99.90
37310;DHT22;23195;47.744;7.358;2022-12-05T04:12:54;4.20;99.90
37310;DHT22;23195;47.744;7.358;2022-12-05T04:15:26;4.20;99.90
37310;DHT22;23195;47.744;7.358;2022-12-05T04:18:14;4.20;99.90
37310;DHT22;23195;47.744;7.358;2022-12-05T04:20:42;4.10;99.90
37310;DHT22;23195;47.744;7.358;2022-12-05T04:23:27;4.20;99.90
37310;DHT22;23195;47.744;7.358;2022-12-05T04:26:08;4.20;99.90
37310;DHT22;23195;47.744;7.358;2022-12-05T04:29:00;4.30;99.90
37310;DHT22;23195;47.744;7.358;2022-12-05T04:31:35;4.30;99.90
37310;DHT22;23195;47.744;7.358;2022-12-05T04:34:06;4.30;99.90
37310;DHT22;23195;47.744;7.358;2022-12-05T04:36:39;4.30;99.90
37310;DHT22;23195;47.744;7.358;2022-12-05T04:39:15;4.30;99.90
37310;DHT22;23195;47.744;7.358;2022-12-05T04:41:48;4.30;99.90
37310;DHT22;23195;47.744;7.358;2022-12-05T04:44:17;4.90;99.90
37310;DHT22;23195;47.744;7.358;2022-12-05T04:46:46;4.30;99.90
37310;DHT22;23195;47.744;7.358;2022-12-05T04:49:16;4.10;99.90
37310;DHT22;23195;47.744;7.358;2022-12-05T04:51:45;4.00;99.90
37310;DHT22;23195;47.744;7.358;2022-12-05T04:54:20;4.30;99.90
37310;DHT22;23195;47.744;7.358;2022-12-05T04:56:50;4.30;99.90
37310;DHT22;23195;47.744;7.358;2022-12-05T04:59:18;4.30;99.90
37310;DHT22;23195;47.744;7.358;2022-12-05T05:01:53;4.20;99.90
37310;DHT22;23195;47.744;7.358;2022-12-05T05:04:40;4.30;99.90
37310;DHT22;23195;47.744;7.358;2022-12-05T05:07:10;4.30;99.90
37310;DHT22;23195;47.744;7.358;2022-12-05T05:09:36;4.30;99.90
37310;DHT22;23195;47.744;7.358;2022-12-05T05:12:03;4.30;99.90
37310;DHT22;23195;47.744;7.358;2022-12-05T05:14:28;4.30;99.90
37310;DHT22;23195;47.744;7.358;2022-12-05T05:16:55;4.20;99.90
37310;DHT22;23195;47.744;7.358;2022-12-05T05:19:22;4.30;99.90
37310;DHT22;23195;47.744;7.358;2022-12-05T05:21:48;4.30;99.90
37310;DHT22;23195;47.744;7.358;2022-12-05T05:24:14;4.20;99.90
37310;DHT22;23195;47.744;7.358;2022-12-05T05:26:42;4.20;99.90
37310;DHT22;23195;47.744;7.358;2022-12-05T05:29:09;4.20;99.90
37310;DHT22;23195;47.744;7.358;2022-12-05T05:31:35;4.30;99.90
37310;DHT22;23195;47.744;7.358;2022-12-05T05:34:03;4.30;99.90
37310;DHT22;23195;47.744;7.358;2022-12-05T05:36:29;4.20;99.90
37310;DHT22;23195;47.744;7.358;2022-12-05T05:38:57;4.20;99.90
37310;DHT22;23195;47.744;7.358;2022-12-05T05:41:29;4.20;99.90
37310;DHT22;23195;47.744;7.358;2022-12-05T05:43:55;4.20;99.90
37310;DHT22;23195;47.744;7.358;2022-12-05T05:46:24;4.20;99.90
37310;DHT22;23195;47.744;7.358;2022-12-05T05:48:50;4.10;99.90
37310;DHT22;23195;47.744;7.358;2022-12-05T05:51:17;4.10;99.90
37310;DHT22;23195;47.744;7.358;2022-12-05T05:53:43;4.10;99.90
37310;DHT22;23195;47.744;7.358;2022-12-05T05:56:12;4.10;99.90
37310;DHT22;23195;47.744;7.358;2022-12-05T05:58:38;4.10;99.90
37310;DHT22;23195;47.744;7.358;2022-12-05T06:01:07;4.10;99.90
37310;DHT22;23195;47.744;7.358;2022-12-05T06:03:34;4.00;99.90
37310;DHT22;23195;47.744;7.358;2022-12-05T06:06:01;4.10;99.90
37310;DHT22;23195;47.744;7.358;2022-12-05T06:08:32;4.00;99.90
37310;DHT22;23195;47.744;7.358;2022-12-05T06:10:59;4.00;99.90
37310;DHT22;23195;47.744;7.358;2022-12-05T06:13:25;4.10;99.90
37310;DHT22;23195;47.744;7.358;2022-12-05T06:15:51;4.10;99.90
37310;DHT22;23195;47.744;7.358;2022-12-05T06:18:17;4.10;99.90
37310;DHT22;23195;47.744;7.358;2022-12-05T06:20:51;4.20;99.90
37310;DHT22;23195;47.744;7.358;2022-12-05T06:23:17;4.10;99.90
37310;DHT22;23195;47.744;7.358;2022-12-05T06:25:50;4.20;99.90
37310;DHT22;23195;47.744;7.358;2022-12-05T06:28:17;4.10;99.90
37310;DHT22;23195;47.744;7.358;2022-12-05T06:30:43;4.10;99.90
37310;DHT22;23195;47.744;7.358;2022-12-05T06:33:09;4.20;99.90
37310;DHT22;23195;47.744;7.358;2022-12-05T06:35:35;4.20;99.90
37310;DHT22;23195;47.744;7.358;2022-12-05T06:38:01;4.20;99.90
37310;DHT22;23195;47.744;7.358;2022-12-05T06:40:27;3.80;99.90
37310;DHT22;23195;47.744;7.358;2022-12-05T06:42:53;4.10;99.90
37310;DHT22;23195;47.744;7.358;2022-12-05T06:45:20;4.10;99.90
37310;DHT22;23195;47.744;7.358;2022-12-05T06:47:46;4.10;99.90
37310;DHT22;23195;47.744;7.358;2022-12-05T06:50:12;4.10;99.90
37310;DHT22;23195;47.744;7.358;2022-12-05T06:52:40;4.10;99.90
37310;DHT22;23195;47.744;7.358;2022-12-05T06:55:09;4.10;99.90
37310;DHT22;23195;47.744;7.358;2022-12-05T06:57:35;4.00;99.90
37310;DHT22;23195;47.744;7.358;2022-12-05T07:00:03;4.00;99.90
37310;DHT22;23195;47.744;7.358;2022-12-05T07:02:55;3.90;99.90
37310;DHT22;23195;47.744;7.358;2022-12-05T07:05:21;3.90;99.90
37310;DHT22;23195;47.744;7.358;2022-12-05T07:07:49;3.90;99.90
37310;DHT22;23195;47.744;7.358;2022-12-05T07:10:15;3.80;99.90
37310;DHT22;23195;47.744;7.358;2022-12-05T07:12:41;3.80;99.90
37310;DHT22;23195;47.744;7.358;2022-12-05T07:15:09;3.70;99.90
37310;DHT22;23195;47.744;7.358;2022-12-05T07:17:37;3.70;99.90
37310;DHT22;23195;47.744;7.358;2022-12-05T07:23:17;3.60;99.90
37310;DHT22;23195;47.744;7.358;2022-12-05T07:25:42;3.50;99.90
37310;DHT22;23195;47.744;7.358;2022-12-05T07:28:08;3.60;99.90
37310;DHT22;23195;47.744;7.358;2022-12-05T07:30:34;3.70;99.90
37310;DHT22;23195;47.744;7.358;2022-12-05T07:33:00;3.70;99.90
37310;DHT22;23195;47.744;7.358;2022-12-05T07:35:26;3.70;99.90
37310;DHT22;23195;47.744;7.358;2022-12-05T07:37:51;3.70;99.90
37310;DHT22;23195;47.744;7.358;2022-12-05T07:40:17;3.80;99.90
37310;DHT22;23195;47.744;7.358;2022-12-05T07:42:46;3.80;99.90
37310;DHT22;23195;47.744;7.358;2022-12-05T07:45:12;3.80;99.90
37310;DHT22;23195;47.744;7.358;2022-12-05T07:47:37;3.90;99.90
37310;DHT22;23195;47.744;7.358;2022-12-05T07:50:04;4.00;99.90
37310;DHT22;23195;47.744;7.358;2022-12-05T07:52:30;4.10;99.90
37310;DHT22;23195;47.744;7.358;2022-12-05T07:54:55;4.10;99.90
37310;DHT22;23195;47.744;7.358;2022-12-05T07:57:22;4.20;99.90
37310;DHT22;23195;47.744;7.358;2022-12-05T07:59:48;4.20;99.90
37310;DHT22;23195;47.744;7.358;2022-12-05T08:02:16;4.20;99.90
37310;DHT22;23195;47.744;7.358;2022-12-05T08:04:42;4.20;99.90
37310;DHT22;23195;47.744;7.358;2022-12-05T08:07:09;4.10;99.90
37310;DHT22;23195;47.744;7.358;2022-12-05T08:09:35;4.10;99.90
37310;DHT22;23195;47.744;7.358;2022-12-05T08:12:01;4.10;99.90
37310;DHT22;23195;47.744;7.358;2022-12-05T08:14:27;4.10;99.90
37310;DHT22;23195;47.744;7.358;2022-12-05T08:16:53;4.10;99.90
37310;DHT22;23195;47.744;7.358;2022-12-05T08:19:21;4.10;99.90
37310;DHT22;23195;47.744;7.358;2022-12-05T08:21:47;4.20;99.90
37310;DHT22;23195;47.744;7.358;2022-12-05T08:24:13;4.30;99.90
37310;DHT22;23195;47.744;7.358;2022-12-05T08:26:39;4.40;99.90
37310;DHT22;23195;47.744;7.358;2022-12-05T08:29:10;4.50;99.90
37310;DHT22;23195;47.744;7.358;2022-12-05T08:31:44;4.60;99.90
37310;DHT22;23195;47.744;7.358;2022-12-05T08:34:14;4.60;99.90
37310;DHT22;23195;47.744;7.358;2022-12-05T08:36:40;3.70;99.90
37310;DHT22;23195;47.744;7.358;2022-12-05T08:39:07;4.80;99.90
37310;DHT22;23195;47.744;7.358;2022-12-05T08:41:34;4.80;99.90
37310;DHT22;23195;47.744;7.358;2022-12-05T08:44:02;4.90;99.90
37310;DHT22;23195;47.744;7.358;2022-12-05T08:46:29;4.90;99.90
37310;DHT22;23195;47.744;7.358;2022-12-05T08:48:55;4.90;99.90
37310;DHT22;23195;47.744;7.358;2022-12-05T08:51:20;4.90;99.90
37310;DHT22;23195;47.744;7.358;2022-12-05T08:53:46;4.80;99.90
37310;DHT22;23195;47.744;7.358;2022-12-05T08:56:12;4.60;99.90
37310;DHT22;23195;47.744;7.358;2022-12-05T08:58:38;4.90;99.90
37310;DHT22;23195;47.744;7.358;2022-12-05T09:01:05;5.00;99.90
37310;DHT22;23195;47.744;7.358;2022-12-05T09:03:31;5.00;99.90
37310;DHT22;23195;47.744;7.358;2022-12-05T09:06:21;5.00;99.90
37310;DHT22;23195;47.744;7.358;2022-12-05T09:08:48;5.10;99.90
37310;DHT22;23195;47.744;7.358;2022-12-05T09:11:17;5.10;99.90
37310;DHT22;23195;47.744;7.358;2022-12-05T09:13:43;5.10;99.90
37310;DHT22;23195;47.744;7.358;2022-12-05T09:16:15;5.20;99.90
37310;DHT22;23195;47.744;7.358;2022-12-05T09:18:41;5.20;99.90
37310;DHT22;23195;47.744;7.358;2022-12-05T09:21:11;5.30;99.90
37310;DHT22;23195;47.744;7.358;2022-12-05T09:23:37;5.30;99.90
37310;DHT22;23195;47.744;7.358;2022-12-05T09:26:05;5.30;99.90
37310;DHT22;23195;47.744;7.358;2022-12-05T09:28:32;5.40;99.90
37310;DHT22;23195;47.744;7.358;2022-12-05T09:31:06;5.50;99.90
37310;DHT22;23195;47.744;7.358;2022-12-05T09:33:34;5.50;99.90
37310;DHT22;23195;47.744;7.358;2022-12-05T09:36:14;5.50;99.90
37310;DHT22;23195;47.744;7.358;2022-12-05T09:38:40;5.50;99.90
37310;DHT22;23195;47.744;7.358;2022-12-05T09:52:44;5.70;99.90
37310;DHT22;23195;47.744;7.358;2022-12-05T09:55:17;5.80;99.90
37310;DHT22;23195;47.744;7.358;2022-12-05T09:57:53;5.90;99.90
37310;DHT22;23195;47.744;7.358;2022-12-05T10:00:20;5.90;99.90
37310;DHT22;23195;47.744;7.358;2022-12-05T10:11:13;5.80;99.90
37310;DHT22;23195;47.744;7.358;2022-12-05T10:16:55;5.70;99.90
37310;DHT22;23195;47.744;7.358;2022-12-05T10:19:30;5.80;99.90
37310;DHT22;23195;47.744;7.358;2022-12-05T10:22:22;6.00;99.90
37310;DHT22;23195;47.744;7.358;2022-12-05T10:24:53;6.20;99.90
37310;DHT22;23195;47.744;7.358;2022-12-05T10:27:41;6.30;99.90
37310;DHT22;23195;47.744;7.358;2022-12-05T10:30:21;6.50;99.90
37310;DHT22;23195;47.744;7.358;2022-12-05T10:32:58;6.90;99.90
37310;DHT22;23195;47.744;7.358;2022-12-05T10:35:26;7.00;99.90
37310;DHT22;23195;47.744;7.358;2022-12-05T10:38:21;7.10;99.90
37310;DHT22;23195;47.744;7.358;2022-12-05T10:40:54;7.20;99.90
37310;DHT22;23195;47.744;7.358;2022-12-05T10:43:27;7.30;99.90
37310;DHT22;23195;47.744;7.358;2022-12-05T10:45:54;7.40;99.90
37310;DHT22;23195;47.744;7.358;2022-12-05T10:48:21;7.40;99.90
37310;DHT22;23195;47.744;7.358;2022-12-05T10:50:52;7.30;99.90
37310;DHT22;23195;47.744;7.358;2022-12-05T10:53:25;7.20;99.90
37310;DHT22;23195;47.744;7.358;2022-12-05T10:55:52;7.30;99.90
37310;DHT22;23195;47.744;7.358;2022-12-05T10:58:27;7.30;99.90
37310;DHT22;23195;47.744;7.358;2022-12-05T11:00:58;7.40;99.90
37310;DHT22;23195;47.744;7.358;2022-12-05T11:03:37;7.40;99.90
37310;DHT22;23195;47.744;7.358;2022-12-05T11:06:26;7.40;99.90
37310;DHT22;23195;47.744;7.358;2022-12-05T11:08:55;7.40;99.90
37310;DHT22;23195;47.744;7.358;2022-12-05T11:11:26;7.30;99.90
37310;DHT22;23195;47.744;7.358;2022-12-05T11:14:23;7.40;99.90
37310;DHT22;23195;47.744;7.358;2022-12-05T11:16:57;7.40;99.90
37310;DHT22;23195;47.744;7.358;2022-12-05T11:19:37;7.60;99.90
37310;DHT22;23195;47.744;7.358;2022-12-05T11:22:05;7.60;99.90
37310;DHT22;23195;47.744;7.358;2022-12-05T11:24:38;7.60;99.90
37310;DHT22;23195;47.744;7.358;2022-12-05T11:29:43;7.50;99.90
37310;DHT22;23195;47.744;7.358;2022-12-05T11:32:23;7.60;99.90
37310;DHT22;23195;47.744;7.358;2022-12-05T11:37:25;7.60;99.90
37310;DHT22;23195;47.744;7.358;2022-12-05T11:39:52;7.70;99.90
37310;DHT22;23195;47.744;7.358;2022-12-05T11:42:36;7.80;99.90
37310;DHT22;23195;47.744;7.358;2022-12-05T11:47:58;7.90;99.90
37310;DHT22;23195;47.744;7.358;2022-12-05T11:56:12;7.60;99.90
37310;DHT22;23195;47.744;7.358;2022-12-05T12:01:38;7.70;99.90
37310;DHT22;23195;47.744;7.358;2022-12-05T12:04:32;7.90;99.90
37310;DHT22;23195;47.744;7.358;2022-12-05T12:07:29;8.00;99.90
37310;DHT22;23195;47.744;7.358;2022-12-05T12:10:08;8.00;99.90
37310;DHT22;23195;47.744;7.358;2022-12-05T12:15:39;7.40;99.90
37310;DHT22;23195;47.744;7.358;2022-12-05T12:23:40;7.60;99.90
37310;DHT22;23195;47.744;7.358;2022-12-05T12:26:37;7.40;99.90
37310;DHT22;23195;47.744;7.358;2022-12-05T12:50:51;6.60;99.90
37310;DHT22;23195;47.744;7.358;2022-12-05T12:53:30;6.60;99.90
37310;DHT22;23195;47.744;7.358;2022-12-05T12:56:19;6.60;99.90
37310;DHT22;23195;47.744;7.358;2022-12-05T12:58:50;6.60;99.90
37310;DHT22;23195;47.744;7.358;2022-12-05T13:01:38;6.60;99.90
37310;DHT22;23195;47.744;7.358;2022-12-05T13:04:16;6.60;99.90
37310;DHT22;23195;47.744;7.358;2022-12-05T13:06:57;6.60;99.90
37310;DHT22;23195;47.744;7.358;2022-12-05T13:12:10;6.70;99.90
37310;DHT22;23195;47.744;7.358;2022-12-05T13:14:39;6.70;99.90
37310;DHT22;23195;47.744;7.358;2022-12-05T13:17:10;6.80;99.90
37310;DHT22;23195;47.744;7.358;2022-12-05T13:19:48;7.50;99.90
37310;DHT22;23195;47.744;7.358;2022-12-05T13:22:17;7.00;99.90
37310;DHT22;23195;47.744;7.358;2022-12-05T13:24:44;7.00;99.90
37310;DHT22;23195;47.744;7.358;2022-12-05T13:27:22;7.60;99.90
37310;DHT22;23195;47.744;7.358;2022-12-05T13:29:51;7.20;99.90
37310;DHT22;23195;47.744;7.358;2022-12-05T13:34:53;7.10;99.90
37310;DHT22;23195;47.744;7.358;2022-12-05T13:37:25;7.10;99.90
37310;DHT22;23195;47.744;7.358;2022-12-05T13:40:26;7.00;99.90
37310;DHT22;23195;47.744;7.358;2022-12-05T13:43:21;6.90;99.90
37310;DHT22;23195;47.744;7.358;2022-12-05T13:46:05;6.80;99.90
37310;DHT22;23195;47.744;7.358;2022-12-05T13:48:35;6.80;99.90
37310;DHT22;23195;47.744;7.358;2022-12-05T13:51:29;6.70;99.90
37310;DHT22;23195;47.744;7.358;2022-12-05T13:54:11;6.60;99.90
37310;DHT22;23195;47.744;7.358;2022-12-05T13:56:52;6.60;99.90
37310;DHT22;23195;47.744;7.358;2022-12-05T13:59:56;6.50;99.90
37310;DHT22;23195;47.744;7.358;2022-12-05T14:07:46;6.30;99.90
37310;DHT22;23195;47.744;7.358;2022-12-05T14:13:02;6.10;99.90
37310;DHT22;23195;47.744;7.358;2022-12-05T14:15:52;6.10;99.90
37310;DHT22;23195;47.744;7.358;2022-12-05T14:34:34;6.00;99.90
37310;DHT22;23195;47.744;7.358;2022-12-05T14:37:25;6.00;99.90
37310;DHT22;23195;47.744;7.358;2022-12-05T14:39:58;6.10;99.90
37310;DHT22;23195;47.744;7.358;2022-12-05T14:42:37;6.00;99.90
37310;DHT22;23195;47.744;7.358;2022-12-05T14:47:56;5.90;99.90
37310;DHT22;23195;47.744;7.358;2022-12-05T14:50:41;5.90;99.90
37310;DHT22;23195;47.744;7.358;2022-12-05T14:55:52;6.00;99.90
37310;DHT22;23195;47.744;7.358;2022-12-05T15:01:28;5.90;99.90
37310;DHT22;23195;47.744;7.358;2022-12-05T15:04:01;5.80;99.90
37310;DHT22;23195;47.744;7.358;2022-12-05T15:06:28;5.70;99.90
37310;DHT22;23195;47.744;7.358;2022-12-05T15:08:56;5.70;99.90
37310;DHT22;23195;47.744;7.358;2022-12-05T15:11:24;5.60;99.90
37310;DHT22;23195;47.744;7.358;2022-12-05T15:14:14;5.60;99.90
37310;DHT22;23195;47.744;7.358;2022-12-05T15:16:43;5.50;99.90
37310;DHT22;23195;47.744;7.358;2022-12-05T15:19:32;5.50;99.90
37310;DHT22;23195;47.744;7.358;2022-12-05T15:22:05;5.40;99.90
37310;DHT22;23195;47.744;7.358;2022-12-05T15:24:41;5.30;99.90
37310;DHT22;23195;47.744;7.358;2022-12-05T15:27:09;5.20;99.90
37310;DHT22;23195;47.744;7.358;2022-12-05T15:29:37;5.20;99.90
37310;DHT22;23195;47.744;7.358;2022-12-05T15:42:51;5.00;99.90
37310;DHT22;23195;47.744;7.358;2022-12-05T15:45:23;5.00;99.90
37310;DHT22;23195;47.744;7.358;2022-12-05T15:48:23;5.00;99.90
37310;DHT22;23195;47.744;7.358;2022-12-05T15:50:44;5.00;99.90
37310;DHT22;23195;47.744;7.358;2022-12-05T15:55:54;5.00;99.90
37310;DHT22;23195;47.744;7.358;2022-12-05T16:00:59;5.00;99.90
37310;DHT22;23195;47.744;7.358;2022-12-05T16:03:37;5.00;99.90
37310;DHT22;23195;47.744;7.358;2022-12-05T16:06:15;5.10;99.90
37310;DHT22;23195;47.744;7.358;2022-12-05T16:08:49;5.10;99.90
37310;DHT22;23195;47.744;7.358;2022-12-05T16:11:19;5.10;99.90
37310;DHT22;23195;47.744;7.358;2022-12-05T16:13:57;5.10;99.90
37310;DHT22;23195;47.744;7.358;2022-12-05T16:16:28;5.00;99.90
37310;DHT22;23195;47.744;7.358;2022-12-05T16:19:03;5.00;99.90
37310;DHT22;23195;47.744;7.358;2022-12-05T16:21:33;4.90;99.90
37310;DHT22;23195;47.744;7.358;2022-12-05T16:24:21;4.70;99.90
37310;DHT22;23195;47.744;7.358;2022-12-05T16:27:03;4.70;99.90
37310;DHT22;23195;47.744;7.358;2022-12-05T16:29:35;4.50;99.90
37310;DHT22;23195;47.744;7.358;2022-12-05T16:32:03;4.10;99.90
37310;DHT22;23195;47.744;7.358;2022-12-05T16:34:32;4.40;99.90
37310;DHT22;23195;47.744;7.358;2022-12-05T16:36:58;4.40;99.90
37310;DHT22;23195;47.744;7.358;2022-12-05T16:39:26;4.30;99.90
37310;DHT22;23195;47.744;7.358;2022-12-05T16:41:55;4.20;99.90
37310;DHT22;23195;47.744;7.358;2022-12-05T16:46:54;4.00;99.90
37310;DHT22;23195;47.744;7.358;2022-12-05T16:54:32;3.80;99.90
37310;DHT22;23195;47.744;7.358;2022-12-05T16:56:58;2.70;99.90
37310;DHT22;23195;47.744;7.358;2022-12-05T16:59:36;3.80;99.90
37310;DHT22;23195;47.744;7.358;2022-12-05T17:02:04;3.80;99.90
37310;DHT22;23195;47.744;7.358;2022-12-05T17:04:31;3.80;99.90
37310;DHT22;23195;47.744;7.358;2022-12-05T17:07:00;3.70;99.90
37310;DHT22;23195;47.744;7.358;2022-12-05T17:09:26;3.40;99.90
37310;DHT22;23195;47.744;7.358;2022-12-05T17:12:01;3.70;99.90
37310;DHT22;23195;47.744;7.358;2022-12-05T17:14:29;3.70;99.90
37310;DHT22;23195;47.744;7.358;2022-12-05T17:16:57;3.60;99.90
37310;DHT22;23195;47.744;7.358;2022-12-05T17:19:23;3.50;99.90
37310;DHT22;23195;47.744;7.358;2022-12-05T17:21:49;3.50;99.90
37310;DHT22;23195;47.744;7.358;2022-12-05T17:24:18;3.50;99.90
37310;DHT22;23195;47.744;7.358;2022-12-05T17:26:45;3.40;99.90
37310;DHT22;23195;47.744;7.358;2022-12-05T17:29:13;3.40;99.90
37310;DHT22;23195;47.744;7.358;2022-12-05T17:31:39;3.00;99.90
37310;DHT22;23195;47.744;7.358;2022-12-05T17:34:12;3.30;99.90
37310;DHT22;23195;47.744;7.358;2022-12-05T17:36:40;3.30;99.90
37310;DHT22;23195;47.744;7.358;2022-12-05T17:39:06;3.40;99.90
37310;DHT22;23195;47.744;7.358;2022-12-05T17:41:33;3.30;99.90
37310;DHT22;23195;47.744;7.358;2022-12-05T17:43:59;3.40;99.90
37310;DHT22;23195;47.744;7.358;2022-12-05T17:46:24;3.20;99.90
37310;DHT22;23195;47.744;7.358;2022-12-05T17:48:51;3.30;99.90
37310;DHT22;23195;47.744;7.358;2022-12-05T17:51:17;3.30;99.90
37310;DHT22;23195;47.744;7.358;2022-12-05T17:53:43;3.30;99.90
37310;DHT22;23195;47.744;7.358;2022-12-05T17:56:11;3.20;99.90
37310;DHT22;23195;47.744;7.358;2022-12-05T17:58:37;3.20;99.90
37310;DHT22;23195;47.744;7.358;2022-12-05T18:01:03;3.20;99.90
37310;DHT22;23195;47.744;7.358;2022-12-05T18:03:29;3.20;99.90
37310;DHT22;23195;47.744;7.358;2022-12-05T18:05:55;3.20;99.90
37310;DHT22;23195;47.744;7.358;2022-12-05T18:08:20;3.20;99.90
37310;DHT22;23195;47.744;7.358;2022-12-05T18:10:48;3.20;99.90
37310;DHT22;23195;47.744;7.358;2022-12-05T18:13:15;2.40;99.90
37310;DHT22;23195;47.744;7.358;2022-12-05T18:15:41;3.10;99.90
37310;DHT22;23195;47.744;7.358;2022-12-05T18:18:12;3.10;99.90
37310;DHT22;23195;47.744;7.358;2022-12-05T18:20:38;3.10;99.90
37310;DHT22;23195;47.744;7.358;2022-12-05T18:23:04;3.10;99.90
37310;DHT22;23195;47.744;7.358;2022-12-05T18:25:30;3.10;99.90
37310;DHT22;23195;47.744;7.358;2022-12-05T18:28:04;3.10;99.90
37310;DHT22;23195;47.744;7.358;2022-12-05T18:30:32;3.00;99.90
37310;DHT22;23195;47.744;7.358;2022-12-05T18:32:58;3.00;99.90
37310;DHT22;23195;47.744;7.358;2022-12-05T18:35:27;3.00;99.90
37310;DHT22;23195;47.744;7.358;2022-12-05T18:38:12;3.00;99.90
37310;DHT22;23195;47.744;7.358;2022-12-05T18:40:37;2.50;99.90
37310;DHT22;23195;47.744;7.358;2022-12-05T18:46:01;2.90;99.90
37310;DHT22;23195;47.744;7.358;2022-12-05T18:48:29;2.80;99.90
37310;DHT22;23195;47.744;7.358;2022-12-05T18:51:12;2.70;99.90
37310;DHT22;23195;47.744;7.358;2022-12-05T18:54:05;2.70;99.90
37310;DHT22;23195;47.744;7.358;2022-12-05T18:56:41;2.70;99.90
37310;DHT22;23195;47.744;7.358;2022-12-05T18:59:21;2.70;99.90
37310;DHT22;23195;47.744;7.358;2022-12-05T19:01:47;2.70;99.90